Time;durP1;ratioP1;P1;durP2;ratioP2;P2;SDS_P1;SDS_P2;PMS_P1;PMS_P2;Temp;Humidity;BMP_temperature;BMP_pressure;BME280_temperature;BME280_humidity;BME280_pressure;Samples;Min_cycle;Max_cycle;Signal;HPM_P1;HPM_P2
2022/01/16 00:04:24;;;;;;;65.10;29.70;;;;;;;-0.11;84.80;101384.70;87527;1285;80312;-62
2022/01/16 00:06:33;;;;;;;66.20;28.00;;;;;;;-0.20;84.84;101388.66;87538;1285;82592;-64
2022/01/16 00:08:38;;;;;;;65.40;29.00;;;;;;;-0.29;84.99;101392.23;87500;1285;98277;-64
2022/01/16 00:10:44;;;;;;;73.50;29.90;;;;;;;-0.33;84.90;101389.88;87584;1284;88860;-63
2022/01/16 00:12:52;;;;;;;67.10;28.50;;;;;;;-0.30;84.86;101392.69;87502;1284;93796;-64
2022/01/16 00:15:01;;;;;;;62.80;30.20;;;;;;;-0.26;84.99;101380.91;87574;1284;80149;-64
2022/01/16 00:17:07;;;;;;;60.50;28.00;;;;;;;-0.18;84.97;101375.80;87594;1284;83653;-64
2022/01/16 00:19:12;;;;;;;61.80;27.90;;;;;;;-0.12;85.01;101375.77;87539;1285;101119;-57
2022/01/16 00:21:21;;;;;;;56.40;27.80;;;;;;;-0.11;85.19;101382.27;87599;1284;89278;-56
2022/01/16 00:23:30;;;;;;;60.00;28.20;;;;;;;-0.03;85.08;101388.46;87531;1285;93284;-57
2022/01/16 00:25:35;;;;;;;59.70;26.90;;;;;;;0.01;85.13;101385.19;87495;1285;79564;-57
2022/01/16 00:27:44;;;;;;;55.90;27.70;;;;;;;0.03;85.02;101377.65;87597;1284;83919;-57
2022/01/16 00:29:50;;;;;;;57.70;27.20;;;;;;;-0.03;84.97;101372.70;87515;1285;101426;-64
2022/01/16 00:31:56;;;;;;;52.50;26.10;;;;;;;-0.06;85.01;101368.13;87589;1284;89066;-63
2022/01/16 00:34:01;;;;;;;65.40;27.70;;;;;;;-0.14;85.09;101375.00;87481;1285;96308;-55
2022/01/16 00:36:10;;;;;;;59.80;26.40;;;;;;;-0.14;85.11;101374.83;87583;1284;78578;-55
2022/01/16 00:38:15;;;;;;;58.90;27.80;;;;;;;-0.13;85.12;101380.23;87579;1284;83149;-56
2022/01/16 00:40:21;;;;;;;58.00;28.00;;;;;;;-0.13;85.15;101385.01;87536;1285;100513;-56
2022/01/16 00:42:27;;;;;;;56.10;26.40;;;;;;;-0.11;85.19;101384.91;87364;1287;88723;-56
2022/01/16 00:44:35;;;;;;;57.10;26.20;;;;;;;-0.11;85.05;101381.19;87593;1284;94215;-55
2022/01/16 00:46:41;;;;;;;55.70;25.00;;;;;;;-0.09;85.21;101378.08;87526;1285;81522;-56
2022/01/16 00:48:50;;;;;;;54.30;25.80;;;;;;;-0.10;85.24;101368.36;87574;1284;83439;-54
2022/01/16 00:50:56;;;;;;;53.60;26.20;;;;;;;-0.04;85.21;101357.03;87535;1285;99869;-56
2022/01/16 00:53:03;;;;;;;52.20;26.70;;;;;;;-0.00;85.19;101362.60;87565;1284;88378;-56
2022/01/16 00:55:11;;;;;;;48.20;26.20;;;;;;;0.04;85.28;101381.14;87592;1284;94585;-64
2022/01/16 00:57:17;;;;;;;53.80;26.80;;;;;;;0.04;85.21;101387.98;87561;1284;78951;-64
2022/01/16 00:59:23;;;;;;;51.50;25.50;;;;;;;0.06;85.27;101387.91;87506;1285;82193;-55
2022/01/16 01:01:29;;;;;;;54.80;26.90;;;;;;;0.06;85.08;101409.49;87583;1284;100252;-56
2022/01/16 01:03:35;;;;;;;49.40;24.30;;;;;;;0.04;85.02;101412.11;87554;1285;87380;-56
2022/01/16 01:05:40;;;;;;;51.50;22.50;;;;;;;-0.01;84.95;101409.91;87539;1284;93611;-56
2022/01/16 01:07:46;;;;;;;44.80;23.40;;;;;;;-0.07;85.05;101408.94;87519;1285;81808;-56
2022/01/16 01:09:52;;;;;;;46.10;22.70;;;;;;;-0.10;84.92;101400.05;87563;1284;80901;-65
2022/01/16 01:12:02;;;;;;;43.60;21.60;;;;;;;-0.14;84.95;101375.39;87573;1284;97989;-64
2022/01/16 01:14:16;;;;;;;42.80;21.20;;;;;;;-0.17;84.91;101353.06;87524;1285;88623;-56
2022/01/16 01:16:21;;;;;;;46.00;22.50;;;;;;;-0.19;84.97;101360.06;87479;1285;93814;-55
2022/01/16 01:18:36;;;;;;;47.40;22.30;;;;;;;-0.19;84.99;101375.48;87572;1284;78611;-56
2022/01/16 01:20:43;;;;;;;41.20;21.00;;;;;;;-0.16;84.94;101370.90;87629;1284;82427;-57
2022/01/16 01:22:51;;;;;;;47.00;23.40;;;;;;;-0.20;84.98;101350.66;87599;1284;100730;-57
2022/01/16 01:25:00;;;;;;;49.70;22.90;;;;;;;-0.18;85.02;101355.08;87609;1284;88555;-56
2022/01/16 01:27:17;;;;;;;43.90;22.40;;;;;;;-0.18;84.90;101370.84;87549;1284;94061;-55
2022/01/16 01:29:28;;;;;;;46.40;22.70;;;;;;;-0.17;85.00;101356.80;87540;1285;78808;-56
2022/01/16 01:31:37;;;;;;;44.50;21.80;;;;;;;-0.19;85.06;101330.92;87593;1284;81453;-56
2022/01/16 01:33:43;;;;;;;41.90;21.80;;;;;;;-0.21;84.94;101337.39;87553;1284;100537;-63
2022/01/16 01:35:52;;;;;;;50.50;22.70;;;;;;;-0.21;85.01;101348.76;87521;1285;87739;-65
2022/01/16 01:37:57;;;;;;;45.80;21.60;;;;;;;-0.28;85.04;101333.61;87557;1284;93979;-64
2022/01/16 01:40:06;;;;;;;48.70;22.40;;;;;;;-0.30;85.06;101342.79;87507;1285;79758;-57
2022/01/16 01:42:16;;;;;;;43.90;21.40;;;;;;;-0.31;85.02;101365.35;87608;1284;80224;-56
2022/01/16 01:51:36;;;;;;;46.70;23.60;;;;;;;-0.16;84.95;101227.31;87519;1284;78997;-63
2022/01/16 01:53:44;;;;;;;45.60;23.10;;;;;;;-0.18;84.95;101208.34;87537;1285;82570;-56
2022/01/16 01:55:50;;;;;;;43.80;24.10;;;;;;;-0.22;85.09;101217.11;87582;1284;99834;-56
2022/01/16 01:57:58;;;;;;;44.50;23.80;;;;;;;-0.21;84.91;101214.20;87528;1285;89210;-56
2022/01/16 02:00:17;;;;;;;45.90;25.00;;;;;;;-0.23;84.80;101207.96;87540;1284;96122;-64
2022/01/16 02:02:30;;;;;;;44.10;24.70;;;;;;;-0.27;84.70;101219.58;87564;1284;77856;-64
2022/01/16 02:04:36;;;;;;;44.50;22.60;;;;;;;-0.35;84.90;101253.73;87467;1286;82699;-56
2022/01/16 02:06:45;;;;;;;47.80;23.30;;;;;;;-0.40;84.95;101262.23;87560;1284;101167;-57
2022/01/16 02:08:55;;;;;;;46.20;22.60;;;;;;;-0.40;84.91;101277.95;87572;1283;89799;-64
2022/01/16 02:11:02;;;;;;;50.40;24.90;;;;;;;-0.41;84.94;101299.27;87493;1285;95939;-65
2022/01/16 02:13:21;;;;;;;45.10;23.90;;;;;;;-0.39;84.85;101298.06;87595;1284;79558;-64
2022/01/16 02:27:56;;;;;;;44.90;22.80;;;;;;;-0.38;84.97;101288.93;87562;1284;83630;-64
2022/01/16 02:28:05;;;;;;;47.50;24.00;;;;;;;-0.44;84.65;101276.10;87546;1284;83641;-64
2022/01/16 02:30:47;;;;;;;48.50;25.50;;;;;;;-0.49;84.62;101287.20;87580;1284;99943;-61
2022/01/16 02:33:22;;;;;;;54.00;24.60;;;;;;;-0.54;84.75;101280.06;87582;1284;89048;-64
2022/01/16 02:35:27;;;;;;;57.50;29.30;;;;;;;-0.54;84.62;101281.32;87543;1284;95897;-63
2022/01/16 02:37:35;;;;;;;49.10;25.20;;;;;;;-0.55;84.64;101290.56;87577;1284;78914;-64
2022/01/16 02:39:48;;;;;;;52.80;26.60;;;;;;;-0.58;84.76;101281.19;87581;1284;81649;-64
2022/01/16 02:41:55;;;;;;;46.80;25.40;;;;;;;-0.56;84.80;101294.23;87569;1284;98903;-64
2022/01/16 02:44:10;;;;;;;46.90;24.40;;;;;;;-0.58;84.76;101302.66;87568;1284;90097;-57
2022/01/16 02:48:40;;;;;;;49.80;25.00;;;;;;;-0.45;84.81;101297.58;87593;1284;77022;-62
2022/01/16 02:50:45;;;;;;;47.40;24.40;;;;;;;-0.41;84.78;101298.70;87540;1285;80687;-63
2022/01/16 02:52:55;;;;;;;47.60;23.60;;;;;;;-0.40;84.65;101299.73;87563;1284;100227;-63
2022/01/16 02:55:01;;;;;;;45.40;22.10;;;;;;;-0.56;84.48;101291.52;87584;1284;86844;-56
2022/01/16 02:57:13;;;;;;;44.20;22.80;;;;;;;-0.64;84.62;101304.73;87530;1285;95596;-57
2022/01/16 02:59:20;;;;;;;43.90;22.20;;;;;;;-0.67;84.51;101300.02;87582;1284;79270;-56
2022/01/16 03:01:30;;;;;;;46.20;23.90;;;;;;;-0.69;84.53;101289.34;87559;1284;81434;-56
2022/01/16 03:03:35;;;;;;;46.40;24.30;;;;;;;-0.71;84.35;101284.16;87575;1284;99144;-57
2022/01/16 03:05:44;;;;;;;49.10;23.80;;;;;;;-0.70;84.56;101296.27;87567;1284;89301;-57
2022/01/16 03:07:50;;;;;;;48.90;24.20;;;;;;;-0.70;84.55;101297.71;87559;1284;94384;-56
2022/01/16 03:10:46;;;;;;;44.60;22.50;;;;;;;-0.67;84.53;101290.61;87213;1287;81378;-56
2022/01/16 03:12:53;;;;;;;46.60;23.60;;;;;;;-0.63;84.55;101294.27;87571;1284;83263;-56
2022/01/16 03:15:02;;;;;;;42.10;23.20;;;;;;;-0.60;84.52;101296.34;87517;1285;99394;-64
2022/01/16 03:17:09;;;;;;;43.20;23.10;;;;;;;-0.66;84.55;101294.79;87540;1284;89307;-63
2022/01/16 03:21:54;;;;;;;43.30;23.90;;;;;;;-0.72;84.36;101290.93;87359;1284;78017;-65
2022/01/16 03:24:03;;;;;;;50.50;26.00;;;;;;;-0.79;84.45;101293.67;87532;1285;81783;-57
2022/01/16 03:26:12;;;;;;;53.10;26.10;;;;;;;-0.79;84.49;101287.14;87562;1284;97823;-56
2022/01/16 03:28:18;;;;;;;49.20;24.20;;;;;;;-0.81;84.49;101283.71;87551;1285;87676;-56
2022/01/16 03:30:24;;;;;;;43.60;22.20;;;;;;;-0.81;84.47;101280.88;87550;1284;95578;-56
2022/01/16 03:32:33;;;;;;;47.20;23.40;;;;;;;-0.83;84.48;101268.66;87511;1285;79042;-57
2022/01/16 03:34:38;;;;;;;50.00;23.80;;;;;;;-0.82;84.44;101256.89;87500;1285;83154;-62
2022/01/16 03:36:44;;;;;;;51.10;25.40;;;;;;;-0.81;84.38;101251.38;87535;1284;99436;-61
2022/01/16 03:38:50;;;;;;;50.20;24.30;;;;;;;-0.80;84.33;101253.05;87517;1285;87375;-57
2022/01/16 03:40:56;;;;;;;49.70;25.70;;;;;;;-0.78;84.52;101254.52;87483;1285;94551;-55
2022/01/16 03:43:11;;;;;;;49.60;25.10;;;;;;;-0.77;84.55;101251.63;87543;1284;81545;-55
2022/01/16 03:45:20;;;;;;;49.90;25.00;;;;;;;-0.70;84.60;101246.98;87515;1285;82159;-56
2022/01/16 03:47:26;;;;;;;47.00;25.60;;;;;;;-0.66;84.57;101247.58;87556;1284;99930;-55
2022/01/16 03:49:35;;;;;;;53.90;28.30;;;;;;;-0.67;84.58;101240.02;87510;1286;88544;-55
2022/01/16 03:51:44;;;;;;;52.30;25.50;;;;;;;-0.66;84.43;101244.23;87575;1284;94035;-56
2022/01/16 03:53:50;;;;;;;54.40;27.70;;;;;;;-0.69;84.52;101250.79;87531;1285;77257;-64
2022/01/16 03:55:55;;;;;;;48.50;25.70;;;;;;;-0.68;84.38;101252.13;87537;1284;82903;-64
2022/01/16 03:58:01;;;;;;;54.70;26.90;;;;;;;-0.71;84.27;101241.04;87563;1284;99996;-63
2022/01/16 04:00:13;;;;;;;54.10;25.90;;;;;;;-0.79;84.31;101241.34;87529;1285;86779;-63
2022/01/16 04:02:19;;;;;;;53.50;26.60;;;;;;;-0.85;84.23;101238.17;87555;1284;95114;-65
2022/01/16 04:04:28;;;;;;;49.50;25.80;;;;;;;-0.84;84.15;101238.30;87240;1285;315606;-56
2022/01/16 04:06:34;;;;;;;49.40;25.30;;;;;;;-0.86;84.30;101232.24;87571;1284;81671;-56
2022/01/16 04:08:40;;;;;;;57.20;25.90;;;;;;;-0.83;84.36;101232.04;87499;1285;99760;-63
2022/01/16 04:10:46;;;;;;;52.40;26.40;;;;;;;-0.77;84.44;101226.88;87539;1284;89084;-62
2022/01/16 04:12:54;;;;;;;51.70;25.80;;;;;;;-0.72;84.27;101225.52;87484;1285;94942;-63
2022/01/16 04:17:26;;;;;;;44.00;21.30;;;;;;;-0.70;84.19;101229.08;87570;1284;83142;-55
2022/01/16 04:19:35;;;;;;;51.70;26.40;;;;;;;-0.70;84.37;101229.95;87598;1284;100606;-57
2022/01/16 04:21:44;;;;;;;54.50;27.50;;;;;;;-0.69;84.23;101222.15;87505;1286;88836;-56
2022/01/16 04:23:51;;;;;;;57.10;28.90;;;;;;;-0.73;83.98;101211.97;87553;1284;95097;-62
2022/01/16 04:26:00;;;;;;;55.70;26.60;;;;;;;-0.78;84.00;101210.70;87490;1285;79611;-64
2022/01/16 04:28:06;;;;;;;56.70;26.70;;;;;;;-0.80;83.81;101216.13;87565;1284;80895;-63
2022/01/16 04:30:15;;;;;;;58.10;27.90;;;;;;;-0.85;83.94;101210.42;87584;1284;100620;-63
2022/01/16 04:32:20;;;;;;;59.20;27.00;;;;;;;-0.87;83.96;101208.78;87569;1284;86713;-63
2022/01/16 04:34:26;;;;;;;62.30;28.90;;;;;;;-0.89;84.08;101209.79;87475;1285;95499;-55
2022/01/16 04:36:32;;;;;;;59.40;28.40;;;;;;;-0.90;83.90;101203.88;87560;1284;79174;-56
2022/01/16 04:38:44;;;;;;;57.00;28.50;;;;;;;-0.91;83.88;101204.84;87491;1286;83302;-64
2022/01/16 04:45:44;;;;;;;57.50;26.90;;;;;;;-0.85;83.91;101203.33;87549;1284;95609;-56
2022/01/16 04:47:51;;;;;;;61.80;29.10;;;;;;;-0.82;83.87;101200.86;87578;1283;78472;-57
2022/01/16 04:49:59;;;;;;;56.00;26.80;;;;;;;-0.87;83.80;101196.25;87534;1286;82753;-63
2022/01/16 04:52:09;;;;;;;54.50;26.80;;;;;;;-0.87;83.96;101190.57;87599;1284;99507;-63
2022/01/16 04:54:15;;;;;;;61.30;30.20;;;;;;;-0.88;83.70;101194.17;87583;1284;89532;-62
2022/01/16 04:56:21;;;;;;;61.00;30.30;;;;;;;-0.90;83.45;101188.83;87503;1285;95666;-62
2022/01/16 04:58:30;;;;;;;63.90;29.90;;;;;;;-0.92;83.46;101190.55;87572;1284;78497;-62
2022/01/16 05:00:36;;;;;;;62.60;31.30;;;;;;;-0.96;83.49;101191.01;87582;1284;79379;-62
2022/01/16 05:02:42;;;;;;;66.00;30.00;;;;;;;-0.99;83.59;101196.31;87577;1284;100314;-62
2022/01/16 05:04:47;;;;;;;66.70;32.80;;;;;;;-1.01;83.48;101194.83;87598;1284;88833;-56
2022/01/16 05:06:56;;;;;;;65.90;30.90;;;;;;;-1.02;83.72;101192.81;87487;1285;93389;-55
2022/01/16 05:09:01;;;;;;;62.70;29.00;;;;;;;-1.05;83.61;101186.81;87578;1284;81093;-64
2022/01/16 05:11:08;;;;;;;64.80;29.40;;;;;;;-1.06;83.48;101180.29;87488;1285;83078;-66
2022/01/16 05:13:30;;;;;;;62.90;30.90;;;;;;;-1.07;83.46;101174.20;87546;1284;100244;-64
2022/01/16 05:18:02;;;;;;;57.20;28.70;;;;;;;-1.06;83.52;101162.27;87551;1284;93984;-64
2022/01/16 05:20:13;;;;;;;58.20;29.20;;;;;;;-1.08;83.39;101161.52;87486;1286;81544;-63
2022/01/16 05:22:22;;;;;;;57.90;27.00;;;;;;;-1.05;83.58;101163.61;87570;1284;80439;-62
2022/01/16 05:24:32;;;;;;;54.90;27.60;;;;;;;-0.99;83.44;101168.17;87494;1286;98867;-55
2022/01/16 05:26:40;;;;;;;59.60;30.40;;;;;;;-0.96;83.62;101165.71;87325;1287;89103;-55
2022/01/16 05:28:47;;;;;;;61.30;29.70;;;;;;;-0.94;83.44;101156.21;87485;1285;94362;-55
2022/01/16 05:30:53;;;;;;;56.40;28.80;;;;;;;-0.95;83.41;101153.30;87581;1283;76538;-55
2022/01/16 05:33:01;;;;;;;59.00;29.30;;;;;;;-0.97;83.22;101147.91;87582;1284;81302;-55
2022/01/16 05:35:10;;;;;;;57.20;28.20;;;;;;;-1.02;83.11;101145.45;87464;1286;100973;-64
2022/01/16 05:37:16;;;;;;;65.50;31.30;;;;;;;-1.08;83.18;101131.14;87571;1284;89634;-64
2022/01/16 05:39:21;;;;;;;56.80;27.70;;;;;;;-1.11;83.28;101131.70;87463;1287;93567;-56
2022/01/16 05:41:27;;;;;;;59.40;28.50;;;;;;;-1.15;83.33;101124.16;87545;1284;81115;-55
2022/01/16 05:43:33;;;;;;;57.00;27.90;;;;;;;-1.17;83.13;101118.66;87512;1286;82063;-56
2022/01/16 05:45:39;;;;;;;61.10;29.80;;;;;;;-1.17;83.11;101125.51;87530;1285;101055;-56
2022/01/16 05:47:45;;;;;;;52.50;27.60;;;;;;;-1.14;83.34;101129.79;87461;1287;88033;-55
2022/01/16 05:49:52;;;;;;;59.30;28.90;;;;;;;-1.12;83.22;101127.00;87479;1286;95646;-65
2022/01/16 05:52:00;;;;;;;56.20;29.20;;;;;;;-1.08;83.33;101120.90;87530;1284;78799;-64
2022/01/16 05:54:10;;;;;;;52.10;28.40;;;;;;;-1.03;83.32;101119.89;87537;1284;81020;-63
2022/01/16 05:56:15;;;;;;;53.30;27.70;;;;;;;-1.06;83.59;101119.69;87571;1284;100116;-64
2022/01/16 05:58:25;;;;;;;52.30;28.40;;;;;;;-1.04;83.11;101115.50;87553;1286;88498;-64
2022/01/16 06:00:31;;;;;;;52.00;26.80;;;;;;;-1.06;83.04;101114.40;87558;1284;93854;-65
2022/01/16 06:02:39;;;;;;;57.80;27.90;;;;;;;-1.11;83.06;101115.25;87474;1286;78085;-64
2022/01/16 06:04:48;;;;;;;54.80;28.50;;;;;;;-1.14;82.85;101118.08;87541;1284;82037;-64
2022/01/16 06:06:54;;;;;;;55.40;28.40;;;;;;;-1.20;82.84;101108.38;87538;1284;101277;-65
2022/01/16 06:09:00;;;;;;;56.60;28.00;;;;;;;-1.26;82.85;101102.07;87521;1284;89304;-56
2022/01/16 06:11:06;;;;;;;56.60;28.20;;;;;;;-1.30;83.13;101104.06;87449;1288;95706;-56
2022/01/16 06:13:16;;;;;;;56.40;27.50;;;;;;;-1.35;83.02;101094.70;87410;1287;79733;-55
2022/01/16 06:15:22;;;;;;;54.40;27.70;;;;;;;-1.34;83.16;101092.66;87527;1284;81690;-55
2022/01/16 06:17:28;;;;;;;59.80;29.00;;;;;;;-1.34;83.10;101093.61;87473;1288;98946;-55
2022/01/16 06:19:34;;;;;;;61.30;28.80;;;;;;;-1.30;83.12;101088.56;87547;1284;87344;-63
2022/01/16 06:21:39;;;;;;;61.90;30.20;;;;;;;-1.27;83.07;101081.06;87537;1284;94882;-64
2022/01/16 06:23:45;;;;;;;58.90;29.50;;;;;;;-1.26;83.00;101075.02;87573;1284;77997;-63
2022/01/16 06:25:54;;;;;;;56.20;29.80;;;;;;;-1.27;83.12;101073.68;87531;1284;82395;-64
2022/01/16 06:28:00;;;;;;;62.80;29.00;;;;;;;-1.26;83.15;101067.83;87468;1287;99225;-65
2022/01/16 06:30:12;;;;;;;63.30;32.10;;;;;;;-1.30;82.88;101068.23;87563;1284;89289;-56
2022/01/16 06:32:18;;;;;;;64.50;31.00;;;;;;;-1.35;83.15;101068.90;87537;1284;95643;-53
2022/01/16 06:34:27;;;;;;;68.70;31.80;;;;;;;-1.41;82.99;101073.37;87570;1284;78771;-56
2022/01/16 06:36:37;;;;;;;63.20;31.60;;;;;;;-1.47;83.10;101069.14;87457;1286;80853;-56
2022/01/16 06:38:46;;;;;;;57.80;28.70;;;;;;;-1.49;82.96;101061.31;87579;1284;99846;-64
2022/01/16 06:40:51;;;;;;;58.50;29.00;;;;;;;-1.51;83.37;101059.54;87421;1287;88756;-64
2022/01/16 06:42:58;;;;;;;56.70;27.90;;;;;;;-1.50;83.17;101061.94;87534;1284;94563;-63
2022/01/16 06:45:10;;;;;;;58.10;28.50;;;;;;;-1.48;83.21;101066.02;87484;1286;80755;-64
2022/01/16 06:47:17;;;;;;;55.80;26.50;;;;;;;-1.44;83.09;101070.03;87563;1284;80183;-64
2022/01/16 06:49:22;;;;;;;52.40;25.80;;;;;;;-1.39;83.11;101074.42;87541;1284;99289;-56
2022/01/16 06:51:31;;;;;;;48.40;24.80;;;;;;;-1.34;83.03;101076.58;87459;1287;88740;-55
2022/01/16 06:53:37;;;;;;;53.20;27.30;;;;;;;-1.33;83.21;101075.30;87504;1284;95723;-64
2022/01/16 06:55:42;;;;;;;56.50;29.10;;;;;;;-1.29;83.23;101075.39;87437;1287;78332;-64
2022/01/16 06:57:51;;;;;;;54.80;28.10;;;;;;;-1.28;82.99;101074.42;87478;1286;81558;-63
2022/01/16 06:59:56;;;;;;;50.20;26.90;;;;;;;-1.27;83.03;101070.48;87562;1284;98425;-64
2022/01/16 07:02:03;;;;;;;59.10;27.70;;;;;;;-1.31;82.99;101067.42;87561;1284;89777;-65
2022/01/16 07:04:11;;;;;;;51.00;26.50;;;;;;;-1.27;82.98;101067.81;87546;1284;94760;-65
2022/01/16 07:06:17;;;;;;;52.90;27.00;;;;;;;-1.23;82.88;101068.48;87563;1284;76374;-62
2022/01/16 07:08:26;;;;;;;52.30;26.30;;;;;;;-1.23;82.88;101073.80;87578;1284;83138;-64
2022/01/16 07:10:35;;;;;;;49.60;25.80;;;;;;;-1.26;82.90;101075.53;87458;1287;100481;-67
2022/01/16 07:12:44;;;;;;;51.00;26.10;;;;;;;-1.26;82.71;101080.32;87545;1284;88918;-62
2022/01/16 07:14:50;;;;;;;47.60;24.90;;;;;;;-1.27;82.70;101085.30;87455;1287;95608;-56
2022/01/16 07:16:55;;;;;;;52.10;24.80;;;;;;;-1.29;82.76;101082.82;87250;1287;83019;-56
2022/01/16 07:19:02;;;;;;;45.70;24.10;;;;;;;-1.26;82.91;101082.45;87565;1284;81388;-57
2022/01/16 07:21:13;;;;;;;47.90;24.50;;;;;;;-1.23;82.94;101083.48;87579;1284;98815;-56
2022/01/16 07:23:20;;;;;;;51.20;24.30;;;;;;;-1.19;82.84;101084.80;87445;1286;87962;-57
2022/01/16 07:25:26;;;;;;;46.10;23.90;;;;;;;-1.14;83.05;101079.59;87562;1284;95437;-64
2022/01/16 07:27:31;;;;;;;44.80;24.60;;;;;;;-1.07;82.96;101077.13;87456;1285;78700;-63
2022/01/16 07:29:40;;;;;;;43.10;22.10;;;;;;;-0.99;83.16;101075.95;87592;1284;82752;-63
2022/01/16 07:31:49;;;;;;;45.80;23.30;;;;;;;-0.94;83.20;101068.54;87437;1287;99678;-68
2022/01/16 07:33:58;;;;;;;50.70;24.90;;;;;;;-0.92;83.22;101063.63;87586;1284;88386;-56
2022/01/16 07:36:06;;;;;;;44.00;23.20;;;;;;;-0.94;82.94;101059.54;87461;1287;93813;-55
2022/01/16 07:38:11;;;;;;;46.60;23.30;;;;;;;-0.92;83.11;101066.42;87483;1287;79297;-56
2022/01/16 07:40:20;;;;;;;47.00;24.40;;;;;;;-0.90;82.93;101067.75;87566;1284;82903;-56
2022/01/16 07:42:25;;;;;;;46.70;23.30;;;;;;;-0.93;82.81;101066.16;87548;1284;101055;-56
2022/01/16 07:44:32;;;;;;;44.00;23.30;;;;;;;-0.96;83.00;101064.21;87580;1284;87193;-56
2022/01/16 07:46:40;;;;;;;51.10;24.30;;;;;;;-0.94;83.15;101062.69;87485;1286;94234;-56
2022/01/16 07:48:46;;;;;;;47.20;21.80;;;;;;;-0.89;83.05;101065.58;87582;1284;79091;-64
2022/01/16 07:50:55;;;;;;;47.70;24.20;;;;;;;-0.88;83.22;101062.83;87598;1284;80404;-63
2022/01/16 07:53:01;;;;;;;41.60;21.10;;;;;;;-0.81;83.11;101061.11;87447;1285;99717;-62
2022/01/16 07:55:09;;;;;;;40.30;22.10;;;;;;;-0.74;83.26;101059.73;87568;1284;89188;-63
2022/01/16 07:57:15;;;;;;;44.10;22.40;;;;;;;-0.70;83.02;101052.95;87566;1284;95614;-65
2022/01/16 07:59:21;;;;;;;40.70;19.90;;;;;;;-0.65;83.31;101055.65;87481;1286;77452;-54
2022/01/16 08:01:27;;;;;;;41.20;20.60;;;;;;;-0.59;83.28;101055.95;87600;1284;82011;-55
2022/01/16 08:03:37;;;;;;;42.60;21.00;;;;;;;-0.60;83.16;101055.30;87486;1285;100774;-59
2022/01/16 08:05:43;;;;;;;41.90;21.20;;;;;;;-0.63;83.19;101050.54;87570;1284;88508;-55
2022/01/16 08:07:49;;;;;;;45.30;21.80;;;;;;;-0.63;83.09;101051.92;87571;1284;94832;-63
2022/01/16 08:09:58;;;;;;;89.80;45.90;;;;;;;-0.60;83.16;101049.81;87469;1286;77304;-65
2022/01/16 08:12:05;;;;;;;65.20;31.40;;;;;;;-0.57;83.07;101043.41;87596;1284;83028;-64
2022/01/16 08:14:11;;;;;;;45.10;21.50;;;;;;;-0.60;83.12;101039.71;87465;1286;100750;-56
2022/01/16 08:16:18;;;;;;;45.30;20.90;;;;;;;-0.57;83.04;101041.27;87583;1284;89174;-56
2022/01/16 08:18:26;;;;;;;42.70;21.20;;;;;;;-0.54;83.03;101036.36;87437;1285;96053;-55
2022/01/16 08:20:32;;;;;;;44.20;21.10;;;;;;;-0.50;83.14;101032.85;87586;1284;80665;-62
2022/01/16 08:22:39;;;;;;;36.80;18.80;;;;;;;-0.46;83.22;101034.52;87452;1286;82274;-63
2022/01/16 08:24:45;;;;;;;35.20;19.00;;;;;;;-0.47;83.26;101029.80;87461;1285;100737;-66
2022/01/16 08:26:54;;;;;;;41.60;19.40;;;;;;;-0.36;83.10;101030.33;87465;1284;88434;-63
2022/01/16 08:29:01;;;;;;;33.80;18.90;;;;;;;-0.30;83.14;101033.41;87545;1284;96030;-63
2022/01/16 08:31:07;;;;;;;40.60;19.60;;;;;;;-0.27;83.18;101026.52;87438;1286;77877;-54
2022/01/16 08:33:13;;;;;;;39.80;19.60;;;;;;;-0.26;82.90;101021.84;87460;1285;81376;-55
2022/01/16 08:35:20;;;;;;;42.70;20.50;;;;;;;-0.27;82.91;101010.94;87562;1284;100112;-64
2022/01/16 08:37:30;;;;;;;42.00;20.30;;;;;;;-0.27;82.77;101009.15;87468;1285;88325;-64
2022/01/16 08:39:38;;;;;;;37.90;20.10;;;;;;;-0.27;82.86;101009.33;87571;1284;95197;-64
2022/01/16 08:41:44;;;;;;;36.90;19.40;;;;;;;-0.30;82.80;101008.15;87546;1284;82002;-64
2022/01/16 08:43:50;;;;;;;45.90;21.00;;;;;;;-0.32;82.75;101006.46;87586;1284;80487;-54
2022/01/16 08:45:56;;;;;;;36.50;18.80;;;;;;;-0.32;82.81;101005.23;87464;1285;99454;-56
2022/01/16 08:48:02;;;;;;;38.60;19.60;;;;;;;-0.27;82.84;101009.33;87462;1286;87187;-55
2022/01/16 08:50:11;;;;;;;37.90;19.40;;;;;;;-0.24;82.85;101007.36;87432;1286;92541;-56
2022/01/16 08:52:19;;;;;;;42.40;18.90;;;;;;;-0.15;82.89;101001.77;87585;1284;79630;-55
2022/01/16 08:54:29;;;;;;;43.60;18.20;;;;;;;-0.09;82.85;100995.66;87584;1284;82229;-58
2022/01/16 08:56:38;;;;;;;37.50;18.10;;;;;;;-0.03;83.03;100995.04;87461;1285;99667;-56
2022/01/16 08:58:43;;;;;;;36.40;17.70;;;;;;;0.07;83.00;100993.11;87490;1286;89159;-64
2022/01/16 09:00:50;;;;;;;38.70;18.90;;;;;;;0.16;82.94;100985.08;87584;1284;95725;-64
2022/01/16 09:02:57;;;;;;;39.00;19.40;;;;;;;0.23;82.83;100978.02;87568;1284;77834;-64
2022/01/16 09:05:08;;;;;;;44.70;19.70;;;;;;;0.28;82.68;100980.65;87615;1284;82657;-56
2022/01/16 09:07:15;;;;;;;34.60;18.10;;;;;;;0.27;82.66;100977.91;87472;1285;99079;-56
2022/01/16 09:09:21;;;;;;;41.00;18.90;;;;;;;0.23;82.50;100973.54;87581;1284;89046;-57
2022/01/16 09:11:27;;;;;;;43.00;20.60;;;;;;;0.18;82.59;100969.34;87436;1285;95563;-57
2022/01/16 09:13:37;;;;;;;38.30;20.00;;;;;;;0.16;82.52;100963.05;87600;1284;79360;-62
2022/01/16 09:15:49;;;;;;;42.60;19.00;;;;;;;0.15;82.29;100962.66;87592;1284;80376;-65
2022/01/16 09:17:58;;;;;;;34.90;16.90;;;;;;;0.13;82.52;100963.80;87466;1285;99830;-64
2022/01/16 09:20:13;;;;;;;39.50;18.30;;;;;;;0.14;82.45;100965.50;87581;1284;89344;-58
2022/01/16 09:22:19;;;;;;;38.30;18.30;;;;;;;0.18;82.43;100959.95;87450;1286;95671;-64
2022/01/16 09:24:25;;;;;;;34.10;15.40;;;;;;;0.18;82.60;100951.91;87486;1286;78955;-57
2022/01/16 09:26:30;;;;;;;33.70;17.70;;;;;;;0.26;82.61;100945.66;87568;1284;83869;-58
2022/01/16 09:28:36;;;;;;;36.80;17.10;;;;;;;0.38;82.51;100940.94;87542;1284;100584;-57
2022/01/16 09:30:46;;;;;;;36.40;16.50;;;;;;;0.46;82.49;100935.34;87478;1285;88906;-57
2022/01/16 09:32:53;;;;;;;30.60;16.80;;;;;;;0.50;82.40;100926.23;87558;1284;94358;-55
2022/01/16 09:35:03;;;;;;;37.40;18.20;;;;;;;0.54;82.51;100925.59;87601;1284;78539;-57
2022/01/16 09:37:09;;;;;;;32.60;17.30;;;;;;;0.54;82.36;100925.17;87463;1285;81089;-56
2022/01/16 09:39:16;;;;;;;31.50;17.20;;;;;;;0.55;82.23;100920.00;87637;1284;99108;-57
2022/01/16 09:41:25;;;;;;;37.40;17.80;;;;;;;0.54;82.31;100917.58;87485;1285;88469;-57
2022/01/16 09:43:34;;;;;;;36.30;17.80;;;;;;;0.55;82.20;100918.58;87269;1287;94559;-60
2022/01/16 09:45:41;;;;;;;32.60;16.50;;;;;;;0.52;82.09;100915.73;87551;1284;77641;-67
2022/01/16 09:47:50;;;;;;;36.60;16.80;;;;;;;0.46;82.11;100915.51;87588;1284;82440;-67
2022/01/16 09:49:59;;;;;;;36.00;16.00;;;;;;;0.45;81.99;100911.84;87584;1284;100244;-57
2022/01/16 09:52:08;;;;;;;35.80;17.40;;;;;;;0.46;82.02;100907.92;87431;1286;87823;-56
2022/01/16 09:54:18;;;;;;;35.60;17.20;;;;;;;0.48;82.10;100905.11;87611;1284;94217;-56
2022/01/16 09:56:27;;;;;;;29.80;16.30;;;;;;;0.55;82.12;100900.65;87588;1284;78395;-56
2022/01/16 09:58:37;;;;;;;35.60;16.20;;;;;;;0.64;82.21;100894.36;87444;1285;79930;-56
2022/01/16 10:00:43;;;;;;;31.90;16.50;;;;;;;0.63;82.12;100889.07;87544;1284;101150;-56
2022/01/16 10:02:49;;;;;;;30.00;16.70;;;;;;;0.68;82.19;100885.00;87475;1285;89302;-57
2022/01/16 10:04:55;;;;;;;35.00;17.20;;;;;;;0.73;82.14;100884.66;87589;1284;94666;-56
2022/01/16 10:07:04;;;;;;;35.40;18.00;;;;;;;0.74;82.23;100881.54;87609;1284;77400;-64
2022/01/16 10:09:18;;;;;;;35.90;17.50;;;;;;;0.79;82.07;100873.72;87466;1285;82066;-57
2022/01/16 10:11:35;;;;;;;34.40;18.30;;;;;;;0.84;82.16;100865.01;87575;1284;98704;-66
2022/01/16 10:13:59;;;;;;;34.50;17.80;;;;;;;0.80;82.03;100854.89;87490;1285;87759;-65
2022/01/16 10:16:07;;;;;;;34.90;18.00;;;;;;;0.85;81.99;100838.53;87595;1284;94490;-65
2022/01/16 10:18:13;;;;;;;33.00;17.70;;;;;;;0.87;81.74;100831.61;87459;1286;79314;-59